Marble Rock, Iowa
Current Conditions -  °F | °C
As of 5:35 PM on Thursday 18 Dec 2014 (Local Time) from KCCY Reporting Station
Overcast Overcast  
Wind Chill: 17°   Ceiling: 8000
Heat Index: 23°   Visibility: 10mi
Dew Point: 18°   Wind: 5mph
Humidity: 80%   Direction: 360°N
Pressure: 30.25"   Gusts: NA
Location:  42.97°N, 92.87°W
Report Text: KCCY 182335Z AUTO 36004KT 10SM OVC080 M05/M08 A3025 RMK AO2
Loading
Personal Weather Stations






























Interactive Weather Map New forecast layout! Learn more

10-Day Weather Forecast

Advertisements
Track Severe Weather on mobile